sensor_id;sensor_type;location;lat;lon;timestamp;P1;durP1;ratioP1;P2;durP2;ratioP2
41466;SDS011;27205;53.690;19.948;2022-07-10T00:02:43;3.50;;;1.80;;
41466;SDS011;27205;53.690;19.948;2022-07-10T00:07:48;2.70;;;1.80;;
41466;SDS011;27205;53.690;19.948;2022-07-10T00:12:52;4.90;;;1.80;;
41466;SDS011;27205;53.690;19.948;2022-07-10T00:17:55;5.50;;;2.20;;
41466;SDS011;27205;53.690;19.948;2022-07-10T00:22:59;4.50;;;2.00;;
41466;SDS011;27205;53.690;19.948;2022-07-10T00:28:03;3.40;;;2.00;;
41466;SDS011;27205;53.690;19.948;2022-07-10T00:33:07;4.00;;;1.90;;
41466;SDS011;27205;53.690;19.948;2022-07-10T00:38:11;3.20;;;2.00;;
41466;SDS011;27205;53.690;19.948;2022-07-10T00:43:15;4.00;;;2.50;;
41466;SDS011;27205;53.690;19.948;2022-07-10T00:48:18;2.40;;;1.90;;
41466;SDS011;27205;53.690;19.948;2022-07-10T00:53:22;4.70;;;2.20;;
41466;SDS011;27205;53.690;19.948;2022-07-10T00:58:25;2.80;;;2.10;;
41466;SDS011;27205;53.690;19.948;2022-07-10T01:03:28;4.00;;;2.10;;
41466;SDS011;27205;53.690;19.948;2022-07-10T01:08:32;6.00;;;2.50;;
41466;SDS011;27205;53.690;19.948;2022-07-10T01:13:36;2.50;;;1.70;;
41466;SDS011;27205;53.690;19.948;2022-07-10T01:18:40;3.50;;;2.20;;
41466;SDS011;27205;53.690;19.948;2022-07-10T01:23:44;3.40;;;1.80;;
41466;SDS011;27205;53.690;19.948;2022-07-10T01:28:48;4.60;;;2.40;;
41466;SDS011;27205;53.690;19.948;2022-07-10T01:33:53;5.30;;;2.20;;
41466;SDS011;27205;53.690;19.948;2022-07-10T01:38:58;3.10;;;1.60;;
41466;SDS011;27205;53.690;19.948;2022-07-10T01:44:02;4.00;;;2.40;;
41466;SDS011;27205;53.690;19.948;2022-07-10T01:49:05;3.80;;;2.10;;
41466;SDS011;27205;53.690;19.948;2022-07-10T01:54:08;2.60;;;1.60;;
41466;SDS011;27205;53.690;19.948;2022-07-10T01:59:12;4.30;;;2.10;;
41466;SDS011;27205;53.690;19.948;2022-07-10T02:04:15;7.40;;;2.60;;
41466;SDS011;27205;53.690;19.948;2022-07-10T02:09:38;3.50;;;1.90;;
41466;SDS011;27205;53.690;19.948;2022-07-10T02:14:42;3.50;;;1.70;;
41466;SDS011;27205;53.690;19.948;2022-07-10T02:19:46;3.00;;;1.50;;
41466;SDS011;27205;53.690;19.948;2022-07-10T02:24:49;3.90;;;1.80;;
41466;SDS011;27205;53.690;19.948;2022-07-10T02:29:52;4.50;;;1.90;;
41466;SDS011;27205;53.690;19.948;2022-07-10T02:34:56;6.60;;;2.00;;
41466;SDS011;27205;53.690;19.948;2022-07-10T02:39:59;4.20;;;2.40;;
41466;SDS011;27205;53.690;19.948;2022-07-10T02:45:03;3.20;;;1.80;;
41466;SDS011;27205;53.690;19.948;2022-07-10T02:50:07;4.60;;;2.00;;
41466;SDS011;27205;53.690;19.948;2022-07-10T02:55:11;2.90;;;2.10;;
41466;SDS011;27205;53.690;19.948;2022-07-10T03:00:14;3.00;;;1.80;;
41466;SDS011;27205;53.690;19.948;2022-07-10T03:05:18;4.40;;;2.50;;
41466;SDS011;27205;53.690;19.948;2022-07-10T03:10:22;2.50;;;1.70;;
41466;SDS011;27205;53.690;19.948;2022-07-10T03:15:25;4.20;;;2.40;;
41466;SDS011;27205;53.690;19.948;2022-07-10T03:20:29;3.40;;;1.80;;
41466;SDS011;27205;53.690;19.948;2022-07-10T03:25:32;2.90;;;1.70;;
41466;SDS011;27205;53.690;19.948;2022-07-10T03:30:35;7.40;;;2.40;;
41466;SDS011;27205;53.690;19.948;2022-07-10T03:35:39;2.30;;;1.70;;
41466;SDS011;27205;53.690;19.948;2022-07-10T03:40:43;5.00;;;2.70;;
41466;SDS011;27205;53.690;19.948;2022-07-10T03:45:50;5.70;;;2.60;;
41466;SDS011;27205;53.690;19.948;2022-07-10T03:50:54;4.10;;;2.10;;
41466;SDS011;27205;53.690;19.948;2022-07-10T03:55:57;3.00;;;1.90;;
41466;SDS011;27205;53.690;19.948;2022-07-10T04:01:01;3.80;;;2.00;;
41466;SDS011;27205;53.690;19.948;2022-07-10T04:06:04;5.60;;;2.70;;
41466;SDS011;27205;53.690;19.948;2022-07-10T04:11:08;3.30;;;1.80;;
41466;SDS011;27205;53.690;19.948;2022-07-10T04:16:11;3.10;;;1.90;;
41466;SDS011;27205;53.690;19.948;2022-07-10T04:26:19;4.20;;;2.10;;
41466;SDS011;27205;53.690;19.948;2022-07-10T04:31:22;2.80;;;1.90;;
41466;SDS011;27205;53.690;19.948;2022-07-10T04:36:26;4.20;;;2.30;;
41466;SDS011;27205;53.690;19.948;2022-07-10T04:41:30;3.00;;;2.20;;
41466;SDS011;27205;53.690;19.948;2022-07-10T04:46:33;3.30;;;2.50;;
41466;SDS011;27205;53.690;19.948;2022-07-10T04:51:36;7.10;;;2.80;;
41466;SDS011;27205;53.690;19.948;2022-07-10T04:56:46;7.00;;;3.10;;
41466;SDS011;27205;53.690;19.948;2022-07-10T05:01:49;3.00;;;2.40;;
41466;SDS011;27205;53.690;19.948;2022-07-10T05:06:53;5.00;;;2.30;;
41466;SDS011;27205;53.690;19.948;2022-07-10T05:11:56;3.00;;;2.20;;
41466;SDS011;27205;53.690;19.948;2022-07-10T05:17:00;4.50;;;2.50;;
41466;SDS011;27205;53.690;19.948;2022-07-10T05:22:03;2.40;;;1.70;;
41466;SDS011;27205;53.690;19.948;2022-07-10T05:27:07;3.80;;;2.00;;
41466;SDS011;27205;53.690;19.948;2022-07-10T05:32:10;3.40;;;2.40;;
41466;SDS011;27205;53.690;19.948;2022-07-10T05:37:14;3.90;;;1.80;;
41466;SDS011;27205;53.690;19.948;2022-07-10T05:42:17;3.60;;;2.00;;
41466;SDS011;27205;53.690;19.948;2022-07-10T05:47:20;4.30;;;1.60;;
41466;SDS011;27205;53.690;19.948;2022-07-10T05:52:24;2.60;;;1.90;;
41466;SDS011;27205;53.690;19.948;2022-07-10T05:57:29;3.30;;;2.10;;
41466;SDS011;27205;53.690;19.948;2022-07-10T06:02:34;2.70;;;1.80;;
41466;SDS011;27205;53.690;19.948;2022-07-10T06:07:37;2.10;;;1.40;;
41466;SDS011;27205;53.690;19.948;2022-07-10T06:12:41;4.70;;;2.80;;
41466;SDS011;27205;53.690;19.948;2022-07-10T06:17:44;3.30;;;1.90;;
41466;SDS011;27205;53.690;19.948;2022-07-10T06:22:47;4.80;;;2.50;;
41466;SDS011;27205;53.690;19.948;2022-07-10T06:27:51;2.70;;;1.80;;
41466;SDS011;27205;53.690;19.948;2022-07-10T06:32:54;2.40;;;1.80;;
41466;SDS011;27205;53.690;19.948;2022-07-10T06:37:57;1.90;;;1.30;;
41466;SDS011;27205;53.690;19.948;2022-07-10T06:43:01;2.60;;;2.00;;
41466;SDS011;27205;53.690;19.948;2022-07-10T06:48:04;2.60;;;1.80;;
41466;SDS011;27205;53.690;19.948;2022-07-10T06:53:08;3.40;;;2.20;;
41466;SDS011;27205;53.690;19.948;2022-07-10T06:58:11;2.80;;;1.80;;
41466;SDS011;27205;53.690;19.948;2022-07-10T07:03:15;2.60;;;1.90;;
41466;SDS011;27205;53.690;19.948;2022-07-10T07:08:18;3.80;;;2.20;;
41466;SDS011;27205;53.690;19.948;2022-07-10T07:13:22;3.00;;;1.60;;
41466;SDS011;27205;53.690;19.948;2022-07-10T07:18:25;3.50;;;2.40;;
41466;SDS011;27205;53.690;19.948;2022-07-10T07:23:35;2.00;;;1.20;;
41466;SDS011;27205;53.690;19.948;2022-07-10T07:28:38;1.80;;;1.50;;
41466;SDS011;27205;53.690;19.948;2022-07-10T07:33:42;2.60;;;1.80;;
41466;SDS011;27205;53.690;19.948;2022-07-10T07:38:45;2.30;;;1.70;;
41466;SDS011;27205;53.690;19.948;2022-07-10T07:43:49;2.90;;;2.10;;
41466;SDS011;27205;53.690;19.948;2022-07-10T07:48:52;3.20;;;2.00;;
41466;SDS011;27205;53.690;19.948;2022-07-10T07:53:56;3.70;;;2.00;;
41466;SDS011;27205;53.690;19.948;2022-07-10T07:58:59;2.80;;;1.50;;
41466;SDS011;27205;53.690;19.948;2022-07-10T08:04:02;2.90;;;1.80;;
41466;SDS011;27205;53.690;19.948;2022-07-10T08:09:11;2.90;;;1.40;;
41466;SDS011;27205;53.690;19.948;2022-07-10T08:14:15;2.50;;;1.40;;
41466;SDS011;27205;53.690;19.948;2022-07-10T08:19:18;1.70;;;1.40;;
41466;SDS011;27205;53.690;19.948;2022-07-10T08:24:21;1.40;;;1.10;;
41466;SDS011;27205;53.690;19.948;2022-07-10T08:29:25;2.90;;;2.10;;
41466;SDS011;27205;53.690;19.948;2022-07-10T08:34:28;3.10;;;1.80;;
41466;SDS011;27205;53.690;19.948;2022-07-10T08:39:31;1.50;;;1.10;;
41466;SDS011;27205;53.690;19.948;2022-07-10T08:44:35;2.20;;;1.20;;
41466;SDS011;27205;53.690;19.948;2022-07-10T08:49:45;1.90;;;1.30;;
41466;SDS011;27205;53.690;19.948;2022-07-10T08:54:50;2.80;;;1.40;;
41466;SDS011;27205;53.690;19.948;2022-07-10T08:59:53;2.10;;;1.10;;
41466;SDS011;27205;53.690;19.948;2022-07-10T09:04:57;2.40;;;1.80;;
41466;SDS011;27205;53.690;19.948;2022-07-10T09:10:06;3.60;;;1.50;;
41466;SDS011;27205;53.690;19.948;2022-07-10T09:15:16;2.90;;;1.30;;
41466;SDS011;27205;53.690;19.948;2022-07-10T09:20:24;1.60;;;1.20;;
41466;SDS011;27205;53.690;19.948;2022-07-10T09:25:31;1.90;;;1.30;;
41466;SDS011;27205;53.690;19.948;2022-07-10T09:30:40;2.40;;;1.20;;
41466;SDS011;27205;53.690;19.948;2022-07-10T09:35:57;2.60;;;1.50;;
41466;SDS011;27205;53.690;19.948;2022-07-10T09:41:15;1.60;;;1.30;;
41466;SDS011;27205;53.690;19.948;2022-07-10T09:46:23;1.10;;;1.00;;
41466;SDS011;27205;53.690;19.948;2022-07-10T09:51:32;2.10;;;1.00;;
41466;SDS011;27205;53.690;19.948;2022-07-10T10:01:50;1.30;;;1.20;;
41466;SDS011;27205;53.690;19.948;2022-07-10T10:06:58;2.30;;;1.30;;
41466;SDS011;27205;53.690;19.948;2022-07-10T10:12:13;1.00;;;0.90;;
41466;SDS011;27205;53.690;19.948;2022-07-10T10:17:18;1.90;;;0.80;;
41466;SDS011;27205;53.690;19.948;2022-07-10T10:22:25;1.30;;;1.20;;
41466;SDS011;27205;53.690;19.948;2022-07-10T10:27:30;1.10;;;0.90;;
41466;SDS011;27205;53.690;19.948;2022-07-10T10:32:39;1.50;;;0.90;;
41466;SDS011;27205;53.690;19.948;2022-07-10T10:37:42;2.40;;;2.00;;
41466;SDS011;27205;53.690;19.948;2022-07-10T10:42:54;3.10;;;1.30;;
41466;SDS011;27205;53.690;19.948;2022-07-10T10:53:29;0.30;;;0.10;;
41466;SDS011;27205;53.690;19.948;2022-07-10T10:58:38;0.30;;;0.20;;
41466;SDS011;27205;53.690;19.948;2022-07-10T11:14:28;0.50;;;0.40;;
41466;SDS011;27205;53.690;19.948;2022-07-10T11:19:33;1.60;;;0.90;;
41466;SDS011;27205;53.690;19.948;2022-07-10T11:29:44;0.50;;;0.30;;
41466;SDS011;27205;53.690;19.948;2022-07-10T11:34:55;1.00;;;0.40;;
41466;SDS011;27205;53.690;19.948;2022-07-10T11:40:09;0.90;;;0.50;;
41466;SDS011;27205;53.690;19.948;2022-07-10T11:45:30;0.60;;;0.40;;
41466;SDS011;27205;53.690;19.948;2022-07-10T11:50:36;0.30;;;0.30;;
41466;SDS011;27205;53.690;19.948;2022-07-10T11:55:41;0.30;;;0.30;;
41466;SDS011;27205;53.690;19.948;2022-07-10T12:00:56;0.80;;;0.40;;
41466;SDS011;27205;53.690;19.948;2022-07-10T12:06:05;0.50;;;0.40;;
41466;SDS011;27205;53.690;19.948;2022-07-10T12:11:10;0.80;;;0.40;;
41466;SDS011;27205;53.690;19.948;2022-07-10T12:16:15;0.50;;;0.40;;
41466;SDS011;27205;53.690;19.948;2022-07-10T12:21:19;0.50;;;0.50;;
41466;SDS011;27205;53.690;19.948;2022-07-10T12:26:22;0.80;;;0.50;;
41466;SDS011;27205;53.690;19.948;2022-07-10T12:31:37;1.10;;;1.10;;
41466;SDS011;27205;53.690;19.948;2022-07-10T12:47:14;1.10;;;0.60;;
41466;SDS011;27205;53.690;19.948;2022-07-10T12:52:25;0.70;;;0.70;;
41466;SDS011;27205;53.690;19.948;2022-07-10T12:57:44;0.70;;;0.60;;
41466;SDS011;27205;53.690;19.948;2022-07-10T13:02:49;1.40;;;0.50;;
41466;SDS011;27205;53.690;19.948;2022-07-10T13:08:10;0.60;;;0.60;;
41466;SDS011;27205;53.690;19.948;2022-07-10T13:13:15;0.70;;;0.40;;
41466;SDS011;27205;53.690;19.948;2022-07-10T13:18:21;0.60;;;0.50;;
41466;SDS011;27205;53.690;19.948;2022-07-10T13:23:28;0.90;;;0.50;;
41466;SDS011;27205;53.690;19.948;2022-07-10T13:33:36;0.50;;;0.30;;
41466;SDS011;27205;53.690;19.948;2022-07-10T13:38:40;1.00;;;0.50;;
41466;SDS011;27205;53.690;19.948;2022-07-10T13:43:45;0.40;;;0.30;;
41466;SDS011;27205;53.690;19.948;2022-07-10T13:48:48;0.70;;;0.50;;
41466;SDS011;27205;53.690;19.948;2022-07-10T13:53:51;0.50;;;0.40;;
41466;SDS011;27205;53.690;19.948;2022-07-10T13:58:55;1.00;;;0.60;;
41466;SDS011;27205;53.690;19.948;2022-07-10T14:03:58;0.60;;;0.50;;
41466;SDS011;27205;53.690;19.948;2022-07-10T14:09:02;1.00;;;0.70;;
41466;SDS011;27205;53.690;19.948;2022-07-10T14:14:05;0.40;;;0.30;;
41466;SDS011;27205;53.690;19.948;2022-07-10T14:19:09;0.60;;;0.60;;
41466;SDS011;27205;53.690;19.948;2022-07-10T14:24:13;1.10;;;0.90;;
41466;SDS011;27205;53.690;19.948;2022-07-10T14:29:17;0.20;;;0.20;;
41466;SDS011;27205;53.690;19.948;2022-07-10T14:34:21;1.40;;;1.00;;
41466;SDS011;27205;53.690;19.948;2022-07-10T14:39:27;0.90;;;0.30;;
41466;SDS011;27205;53.690;19.948;2022-07-10T14:44:32;0.70;;;0.70;;
41466;SDS011;27205;53.690;19.948;2022-07-10T14:49:36;0.60;;;0.60;;
41466;SDS011;27205;53.690;19.948;2022-07-10T14:54:39;0.30;;;0.30;;
41466;SDS011;27205;53.690;19.948;2022-07-10T14:59:43;0.60;;;0.60;;
41466;SDS011;27205;53.690;19.948;2022-07-10T15:04:47;0.50;;;0.50;;
41466;SDS011;27205;53.690;19.948;2022-07-10T15:09:50;0.80;;;0.80;;
41466;SDS011;27205;53.690;19.948;2022-07-10T15:14:54;1.00;;;1.00;;
41466;SDS011;27205;53.690;19.948;2022-07-10T15:19:57;1.30;;;1.00;;
41466;SDS011;27205;53.690;19.948;2022-07-10T15:25:00;0.30;;;0.30;;
41466;SDS011;27205;53.690;19.948;2022-07-10T15:30:06;0.70;;;0.40;;
41466;SDS011;27205;53.690;19.948;2022-07-10T15:35:11;0.80;;;0.40;;
41466;SDS011;27205;53.690;19.948;2022-07-10T15:40:15;1.40;;;0.70;;
41466;SDS011;27205;53.690;19.948;2022-07-10T15:45:19;0.70;;;0.40;;
41466;SDS011;27205;53.690;19.948;2022-07-10T15:50:22;1.90;;;0.90;;
41466;SDS011;27205;53.690;19.948;2022-07-10T16:00:29;0.90;;;0.60;;
41466;SDS011;27205;53.690;19.948;2022-07-10T16:05:32;1.40;;;0.80;;
41466;SDS011;27205;53.690;19.948;2022-07-10T16:10:35;2.70;;;0.50;;
41466;SDS011;27205;53.690;19.948;2022-07-10T16:15:39;0.60;;;0.60;;
41466;SDS011;27205;53.690;19.948;2022-07-10T16:20:43;1.30;;;0.70;;
41466;SDS011;27205;53.690;19.948;2022-07-10T16:25:46;0.70;;;0.70;;
41466;SDS011;27205;53.690;19.948;2022-07-10T16:31:06;0.70;;;0.50;;
41466;SDS011;27205;53.690;19.948;2022-07-10T16:36:09;0.80;;;0.80;;
41466;SDS011;27205;53.690;19.948;2022-07-10T16:41:13;2.20;;;1.20;;
41466;SDS011;27205;53.690;19.948;2022-07-10T16:46:16;1.10;;;0.70;;
41466;SDS011;27205;53.690;19.948;2022-07-10T16:51:20;0.70;;;0.60;;
41466;SDS011;27205;53.690;19.948;2022-07-10T16:56:26;1.50;;;1.30;;
41466;SDS011;27205;53.690;19.948;2022-07-10T17:01:30;1.70;;;1.00;;
41466;SDS011;27205;53.690;19.948;2022-07-10T17:06:34;1.10;;;0.90;;
41466;SDS011;27205;53.690;19.948;2022-07-10T17:11:38;1.20;;;1.10;;
41466;SDS011;27205;53.690;19.948;2022-07-10T17:16:41;1.10;;;0.60;;
41466;SDS011;27205;53.690;19.948;2022-07-10T17:21:45;1.20;;;0.90;;
41466;SDS011;27205;53.690;19.948;2022-07-10T17:27:01;0.70;;;0.60;;
41466;SDS011;27205;53.690;19.948;2022-07-10T17:32:05;0.80;;;0.80;;
41466;SDS011;27205;53.690;19.948;2022-07-10T17:37:08;1.10;;;0.90;;
41466;SDS011;27205;53.690;19.948;2022-07-10T17:42:12;1.20;;;0.70;;
41466;SDS011;27205;53.690;19.948;2022-07-10T17:52:19;1.10;;;0.70;;
41466;SDS011;27205;53.690;19.948;2022-07-10T17:57:23;1.00;;;0.70;;
41466;SDS011;27205;53.690;19.948;2022-07-10T18:02:26;1.00;;;0.70;;
41466;SDS011;27205;53.690;19.948;2022-07-10T18:07:29;0.70;;;0.50;;
41466;SDS011;27205;53.690;19.948;2022-07-10T18:12:33;1.20;;;1.10;;
41466;SDS011;27205;53.690;19.948;2022-07-10T18:17:36;0.60;;;0.40;;
41466;SDS011;27205;53.690;19.948;2022-07-10T18:22:40;1.00;;;0.70;;
41466;SDS011;27205;53.690;19.948;2022-07-10T18:27:44;0.60;;;0.60;;
41466;SDS011;27205;53.690;19.948;2022-07-10T18:32:47;0.80;;;0.70;;
41466;SDS011;27205;53.690;19.948;2022-07-10T18:38:16;1.00;;;0.60;;
41466;SDS011;27205;53.690;19.948;2022-07-10T18:43:19;0.60;;;0.60;;
41466;SDS011;27205;53.690;19.948;2022-07-10T18:48:23;0.60;;;0.50;;
41466;SDS011;27205;53.690;19.948;2022-07-10T18:53:27;0.80;;;0.50;;
41466;SDS011;27205;53.690;19.948;2022-07-10T18:58:31;1.40;;;0.70;;
41466;SDS011;27205;53.690;19.948;2022-07-10T19:03:35;1.30;;;1.00;;
41466;SDS011;27205;53.690;19.948;2022-07-10T19:08:38;1.30;;;0.90;;
41466;SDS011;27205;53.690;19.948;2022-07-10T19:13:43;0.70;;;0.70;;
41466;SDS011;27205;53.690;19.948;2022-07-10T19:18:47;0.80;;;0.70;;
41466;SDS011;27205;53.690;19.948;2022-07-10T19:23:51;0.70;;;0.70;;
41466;SDS011;27205;53.690;19.948;2022-07-10T19:28:55;1.10;;;0.70;;
41466;SDS011;27205;53.690;19.948;2022-07-10T19:33:58;1.70;;;0.90;;
41466;SDS011;27205;53.690;19.948;2022-07-10T19:39:02;3.00;;;1.40;;
41466;SDS011;27205;53.690;19.948;2022-07-10T19:44:05;1.20;;;1.10;;
41466;SDS011;27205;53.690;19.948;2022-07-10T19:49:09;2.20;;;1.10;;
41466;SDS011;27205;53.690;19.948;2022-07-10T19:54:12;0.80;;;0.80;;
41466;SDS011;27205;53.690;19.948;2022-07-10T19:59:16;1.50;;;1.00;;
41466;SDS011;27205;53.690;19.948;2022-07-10T20:04:21;1.50;;;1.00;;
41466;SDS011;27205;53.690;19.948;2022-07-10T20:09:24;2.30;;;0.90;;
41466;SDS011;27205;53.690;19.948;2022-07-10T20:19:32;1.70;;;1.20;;
41466;SDS011;27205;53.690;19.948;2022-07-10T20:24:43;1.10;;;0.90;;
41466;SDS011;27205;53.690;19.948;2022-07-10T20:29:47;1.00;;;0.70;;
41466;SDS011;27205;53.690;19.948;2022-07-10T20:34:50;1.50;;;0.90;;
41466;SDS011;27205;53.690;19.948;2022-07-10T20:39:54;2.50;;;1.40;;
41466;SDS011;27205;53.690;19.948;2022-07-10T20:44:57;1.30;;;1.20;;
41466;SDS011;27205;53.690;19.948;2022-07-10T20:50:01;1.60;;;1.10;;
41466;SDS011;27205;53.690;19.948;2022-07-10T20:55:06;1.10;;;1.00;;
41466;SDS011;27205;53.690;19.948;2022-07-10T21:00:10;2.20;;;1.10;;
41466;SDS011;27205;53.690;19.948;2022-07-10T21:05:17;1.80;;;1.00;;
41466;SDS011;27205;53.690;19.948;2022-07-10T21:10:20;2.20;;;1.00;;
41466;SDS011;27205;53.690;19.948;2022-07-10T21:15:43;3.00;;;1.50;;
41466;SDS011;27205;53.690;19.948;2022-07-10T21:20:48;4.60;;;1.80;;
41466;SDS011;27205;53.690;19.948;2022-07-10T21:25:52;1.30;;;1.20;;
41466;SDS011;27205;53.690;19.948;2022-07-10T21:30:56;1.70;;;1.60;;
41466;SDS011;27205;53.690;19.948;2022-07-10T21:35:59;2.10;;;1.40;;
41466;SDS011;27205;53.690;19.948;2022-07-10T21:41:03;1.80;;;1.10;;
41466;SDS011;27205;53.690;19.948;2022-07-10T21:46:08;1.70;;;0.80;;
41466;SDS011;27205;53.690;19.948;2022-07-10T21:51:12;2.50;;;1.50;;
41466;SDS011;27205;53.690;19.948;2022-07-10T21:56:15;1.80;;;1.70;;
41466;SDS011;27205;53.690;19.948;2022-07-10T22:01:19;2.10;;;1.90;;
41466;SDS011;27205;53.690;19.948;2022-07-10T22:06:22;2.20;;;2.00;;
41466;SDS011;27205;53.690;19.948;2022-07-10T22:11:26;1.40;;;0.90;;
41466;SDS011;27205;53.690;19.948;2022-07-10T22:16:29;1.90;;;1.60;;
41466;SDS011;27205;53.690;19.948;2022-07-10T22:21:33;2.40;;;1.90;;
41466;SDS011;27205;53.690;19.948;2022-07-10T22:26:36;3.60;;;1.70;;
41466;SDS011;27205;53.690;19.948;2022-07-10T22:31:40;2.60;;;1.30;;
41466;SDS011;27205;53.690;19.948;2022-07-10T22:36:43;3.20;;;1.70;;
41466;SDS011;27205;53.690;19.948;2022-07-10T22:41:47;3.50;;;1.90;;
41466;SDS011;27205;53.690;19.948;2022-07-10T22:46:50;2.80;;;1.60;;
41466;SDS011;27205;53.690;19.948;2022-07-10T22:51:54;3.40;;;1.50;;
41466;SDS011;27205;53.690;19.948;2022-07-10T22:56:59;3.90;;;2.20;;
41466;SDS011;27205;53.690;19.948;2022-07-10T23:02:02;3.60;;;2.20;;
41466;SDS011;27205;53.690;19.948;2022-07-10T23:07:06;2.50;;;2.10;;
41466;SDS011;27205;53.690;19.948;2022-07-10T23:12:10;3.70;;;2.00;;
41466;SDS011;27205;53.690;19.948;2022-07-10T23:17:13;3.50;;;1.90;;
41466;SDS011;27205;53.690;19.948;2022-07-10T23:22:16;3.60;;;2.20;;
41466;SDS011;27205;53.690;19.948;2022-07-10T23:27:20;3.90;;;2.60;;
41466;SDS011;27205;53.690;19.948;2022-07-10T23:37:28;4.30;;;1.90;;
41466;SDS011;27205;53.690;19.948;2022-07-10T23:42:31;3.80;;;1.70;;
41466;SDS011;27205;53.690;19.948;2022-07-10T23:47:35;3.40;;;1.60;;
41466;SDS011;27205;53.690;19.948;2022-07-10T23:52:42;4.80;;;2.20;;
41466;SDS011;27205;53.690;19.948;2022-07-10T23:57:49;5.10;;;2.20;;
